Time;durP1;ratioP1;P1;durP2;ratioP2;P2;SDS_P1;SDS_P2;PMS_P1;PMS_P2;Temp;Humidity;BMP_temperature;BMP_pressure;BME280_temperature;BME280_humidity;BME280_pressure;Samples;Min_cycle;Max_cycle;Signal;HPM_P1;HPM_P2
2022/05/25 00:00:20;;;;;;;8.37;5.13;;;;;;;17.33;65.29;101269.72;2496573;23;20550;-69
2022/05/25 00:01:21;;;;;;;6.47;5.23;;;;;;;17.35;65.15;101272.03;2496144;23;20197;-69
2022/05/25 00:02:24;;;;;;;7.00;5.10;;;;;;;17.38;64.94;101268.31;2496768;23;20202;-69
2022/05/25 00:03:25;;;;;;;7.77;5.33;;;;;;;17.30;65.04;101259.41;2496675;23;20494;-69
2022/05/25 00:04:26;;;;;;;8.17;5.10;;;;;;;17.31;65.19;101260.97;2496991;23;20857;-69
2022/05/25 00:05:27;;;;;;;6.37;5.10;;;;;;;17.26;65.17;101260.81;2496770;23;20794;-69
2022/05/25 00:06:28;;;;;;;7.07;5.20;;;;;;;17.15;65.20;101252.03;2496398;23;20663;-69
2022/05/25 00:07:28;;;;;;;5.10;4.60;;;;;;;17.26;65.26;101261.56;2496346;23;20152;-69
2022/05/25 00:08:28;;;;;;;4.87;4.37;;;;;;;17.30;65.46;101262.22;2496519;23;20158;-69
2022/05/25 00:09:29;;;;;;;7.07;5.00;;;;;;;16.94;65.14;101208.13;2496779;23;20238;-69
2022/05/25 00:10:30;;;;;;;6.27;5.37;;;;;;;16.73;65.21;101172.59;2496317;23;20188;-69
2022/05/25 00:11:31;;;;;;;8.23;5.10;;;;;;;17.10;64.79;101244.25;2495890;23;20190;-69
2022/05/25 00:12:32;;;;;;;5.93;5.10;;;;;;;17.26;65.35;101255.97;2496044;23;20464;-69
2022/05/25 00:13:33;;;;;;;5.53;5.03;;;;;;;16.83;65.44;101191.75;2495788;23;20197;-69
2022/05/25 00:14:35;;;;;;;7.27;5.43;;;;;;;16.83;65.42;101190.22;2496226;23;20408;-69
2022/05/25 00:15:36;;;;;;;7.17;5.60;;;;;;;17.16;65.38;101229.19;2496624;23;20900;-69
2022/05/25 00:16:37;;;;;;;8.50;5.20;;;;;;;17.17;65.25;101224.38;2495908;23;20455;-69
2022/05/25 00:17:37;;;;;;;7.93;6.17;;;;;;;16.92;65.31;101196.59;2496429;23;20151;-69
2022/05/25 00:19:58;;;;;;;10.10;5.80;;;;;;;17.36;65.39;101260.34;2496944;23;20160;-69
2022/05/25 00:19:59;;;;;;;7.27;5.63;;;;;;;17.37;65.67;101255.56;2496163;23;20152;-69
2022/05/25 00:21:00;;;;;;;9.33;5.63;;;;;;;17.41;65.66;101255.44;2496878;23;20385;-69
2022/05/25 00:22:01;;;;;;;8.93;6.20;;;;;;;17.35;65.60;101253.19;2496732;23;20156;-69
2022/05/25 00:23:02;;;;;;;7.13;5.87;;;;;;;17.33;65.87;101264.09;2496584;23;20384;-69
2022/05/25 00:24:03;;;;;;;9.33;6.50;;;;;;;17.35;65.99;101267.22;2496851;23;20219;-69
2022/05/25 00:25:03;;;;;;;10.10;6.50;;;;;;;17.06;65.73;101210.03;2496819;23;20418;-69
2022/05/25 00:26:04;;;;;;;8.10;6.07;;;;;;;17.39;66.12;101266.31;2496965;23;20162;-69
2022/05/25 00:27:05;;;;;;;7.20;6.33;;;;;;;17.40;66.00;101263.03;2494964;23;20593;-69
2022/05/25 00:28:11;;;;;;;8.80;6.33;;;;;;;17.06;66.32;101222.00;2484222;23;20446;-69
2022/05/25 00:29:14;;;;;;;7.27;6.43;;;;;;;16.64;66.44;101164.94;2495732;23;20412;-69
2022/05/25 00:30:16;;;;;;;8.17;6.10;;;;;;;17.25;66.97;101253.63;2496390;23;20427;-69
2022/05/25 00:31:16;;;;;;;9.97;6.30;;;;;;;17.29;66.63;101252.25;2496578;23;20897;-69
2022/05/25 00:32:17;;;;;;;9.40;6.10;;;;;;;17.37;67.01;101255.56;2496944;23;20721;-69
2022/05/25 00:33:21;;;;;;;8.97;5.67;;;;;;;17.36;67.05;101256.78;2496567;23;20158;-69
2022/05/25 00:34:22;;;;;;;13.07;6.20;;;;;;;17.30;67.06;101253.81;2496962;23;20214;-69
2022/05/25 00:35:25;;;;;;;9.20;6.27;;;;;;;17.28;67.14;101249.91;2496647;23;20464;-69
2022/05/25 00:36:26;;;;;;;12.63;6.97;;;;;;;17.33;66.89;101260.50;2496301;23;20160;-69
2022/05/25 00:37:27;;;;;;;15.10;7.07;;;;;;;17.40;66.89;101256.69;2495958;23;20385;-69
2022/05/25 00:38:27;;;;;;;14.53;7.20;;;;;;;17.39;66.96;101255.88;2495692;23;20772;-69
2022/05/25 00:39:29;;;;;;;25.33;8.13;;;;;;;17.47;67.05;101261.97;2495887;23;20154;-69
2022/05/25 00:40:44;;;;;;;15.63;7.60;;;;;;;17.47;66.75;101259.16;2496602;23;20149;-69
2022/05/25 00:41:45;;;;;;;16.93;8.07;;;;;;;17.30;66.68;101242.59;2495876;23;20395;-69
2022/05/25 00:42:45;;;;;;;16.87;7.73;;;;;;;16.90;66.87;101177.47;2496041;23;20388;-69
2022/05/25 00:43:46;;;;;;;14.90;7.33;;;;;;;17.49;66.61;101268.66;2496559;23;20504;-69
2022/05/25 00:44:47;;;;;;;15.53;6.73;;;;;;;17.40;66.69;101251.06;2496820;23;20549;-69
2022/05/25 00:45:55;;;;;;;15.30;6.87;;;;;;;16.95;66.87;101182.47;2496636;23;20160;-69
2022/05/25 00:46:56;;;;;;;12.57;6.73;;;;;;;17.22;66.77;101235.72;2495966;23;20431;-69
2022/05/25 00:47:57;;;;;;;13.13;6.47;;;;;;;16.89;66.84;101189.91;2496358;23;20387;-69
2022/05/25 00:49:21;;;;;;;13.93;6.50;;;;;;;16.93;66.95;101186.97;2496015;23;20163;-69
2022/05/25 00:50:24;;;;;;;11.20;6.73;;;;;;;17.24;66.88;101235.28;2495903;23;20576;-69
2022/05/25 00:51:47;;;;;;;12.37;6.43;;;;;;;17.34;66.94;101274.06;2496551;23;20392;-69
2022/05/25 00:52:49;;;;;;;6.80;5.80;;;;;;;17.37;67.07;101264.72;2496762;23;20370;-69
2022/05/25 00:53:59;;;;;;;7.20;5.27;;;;;;;17.41;66.81;101263.84;2496601;23;20392;-69
2022/05/25 00:55:04;;;;;;;9.50;6.37;;;;;;;17.44;66.95;101260.88;2497285;23;20378;-69
2022/05/25 00:56:08;;;;;;;11.43;6.37;;;;;;;17.47;66.62;101276.78;2497590;23;20415;-69
2022/05/25 00:57:18;;;;;;;8.63;6.07;;;;;;;16.96;66.97;101205.66;2496383;23;20898;-69
2022/05/25 00:58:19;;;;;;;7.90;5.47;;;;;;;17.36;66.96;101268.75;2497587;23;20365;-69
2022/05/25 00:59:26;;;;;;;7.83;5.33;;;;;;;17.32;66.94;101262.53;2497042;23;20873;-69
2022/05/25 01:00:29;;;;;;;7.70;6.23;;;;;;;17.42;67.19;101270.97;2497176;23;20198;-69
2022/05/25 01:01:30;;;;;;;8.27;6.10;;;;;;;17.41;67.23;101275.03;2497311;23;20384;-69
2022/05/25 01:02:34;;;;;;;7.13;5.77;;;;;;;17.02;66.76;101215.00;2497269;23;20438;-69
2022/05/25 01:03:35;;;;;;;10.07;6.37;;;;;;;17.49;66.97;101288.28;2497312;23;20152;-69
2022/05/25 01:04:35;;;;;;;7.37;5.80;;;;;;;16.77;67.12;101170.44;2497551;23;20867;-69
2022/05/25 01:05:54;;;;;;;7.90;5.30;;;;;;;17.49;66.86;101285.47;2497238;23;20150;-69
2022/05/25 01:07:04;;;;;;;7.43;6.00;;;;;;;17.56;66.75;101281.63;2496660;23;20152;-69
2022/05/25 01:08:23;;;;;;;8.63;5.60;;;;;;;17.16;66.64;101220.78;2497045;23;20358;-69
2022/05/25 01:09:54;;;;;;;8.00;5.60;;;;;;;17.59;66.42;101281.47;2497329;23;20379;-69
2022/05/25 01:11:26;;;;;;;9.80;5.80;;;;;;;17.58;66.72;101288.31;2497559;23;20734;-69
2022/05/25 01:12:35;;;;;;;6.07;5.30;;;;;;;17.63;66.36;101292.50;2497324;23;20396;-69
2022/05/25 01:14:04;;;;;;;10.33;6.00;;;;;;;17.63;66.54;101292.50;2496338;23;20906;-69
2022/05/25 01:15:40;;;;;;;7.20;6.47;;;;;;;17.62;66.79;101291.75;2496837;23;20394;-69
2022/05/25 01:17:06;;;;;;;8.97;6.40;;;;;;;17.61;66.74;101306.22;2496714;23;20366;-69
2022/05/25 01:18:28;;;;;;;6.50;5.60;;;;;;;17.61;66.95;101292.97;2497359;23;20809;-69
2022/05/25 01:19:34;;;;;;;6.90;5.00;;;;;;;17.63;66.58;101289.72;2497191;23;20878;-69
2022/05/25 01:20:47;;;;;;;7.93;5.93;;;;;;;17.63;66.80;101296.88;2497054;23;20369;-69
2022/05/25 01:22:00;;;;;;;8.63;6.27;;;;;;;17.65;66.53;101304.81;2497243;23;20453;-69
2022/05/25 01:23:12;;;;;;;7.63;6.07;;;;;;;17.68;66.66;101301.88;2497305;23;20871;-69
2022/05/25 01:24:25;;;;;;;9.57;6.10;;;;;;;17.73;66.86;101308.91;2497614;23;20741;-69
2022/05/25 01:25:57;;;;;;;9.70;6.10;;;;;;;17.76;66.77;101307.19;2497377;23;20372;-69
2022/05/25 01:27:16;;;;;;;8.80;6.37;;;;;;;17.76;66.76;101299.53;2496612;23;20377;-69
2022/05/25 01:28:41;;;;;;;7.83;6.47;;;;;;;17.75;66.85;101297.22;2497445;23;20452;-69
2022/05/25 01:30:14;;;;;;;14.77;7.20;;;;;;;17.73;66.85;101304.06;2496727;23;20400;-69
2022/05/25 01:31:22;;;;;;;9.67;6.03;;;;;;;17.13;66.16;101235.72;2497071;23;20392;-69
2022/05/25 01:32:35;;;;;;;8.03;5.77;;;;;;;17.48;66.00;101308.34;2497421;23;20368;-69
2022/05/25 01:33:54;;;;;;;6.87;5.10;;;;;;;17.43;65.55;101304.16;2496189;23;20724;-69
2022/05/25 01:34:58;;;;;;;9.13;5.80;;;;;;;17.13;65.67;101265.75;2496904;23;20779;-69
2022/05/25 01:36:04;;;;;;;12.80;6.33;;;;;;;17.39;66.05;101308.34;2496272;23;20419;-69
2022/05/25 01:37:23;;;;;;;10.57;6.23;;;;;;;17.28;65.68;101292.72;2495627;23;20380;-69
2022/05/25 01:38:47;;;;;;;6.87;5.37;;;;;;;17.26;66.16;101306.41;2497188;23;20850;-69
2022/05/25 01:39:55;;;;;;;8.27;5.70;;;;;;;16.64;66.05;101215.31;2496685;23;20854;-69
2022/05/25 01:41:20;;;;;;;6.10;5.30;;;;;;;17.17;66.08;101297.97;2497316;23;20406;-69
2022/05/25 01:42:27;;;;;;;8.73;5.57;;;;;;;16.86;66.24;101254.44;2497427;23;20368;-69
2022/05/25 01:43:35;;;;;;;9.30;6.30;;;;;;;17.00;66.35;101307.84;2497083;23;20372;-69
2022/05/25 01:44:46;;;;;;;12.87;6.87;;;;;;;16.98;66.77;101310.34;2497407;23;20377;-69
2022/05/25 01:45:52;;;;;;;10.83;6.80;;;;;;;17.02;67.34;101316.59;2497288;23;20379;-69
2022/05/25 01:47:04;;;;;;;8.23;6.50;;;;;;;16.30;66.66;101212.59;2496630;23;20378;-69
2022/05/25 01:48:08;;;;;;;9.93;6.73;;;;;;;16.88;66.90;101300.34;2497034;23;20366;-69
2022/05/25 01:49:14;;;;;;;8.57;6.80;;;;;;;16.98;66.87;101321.53;2496946;23;20396;-69
2022/05/25 01:50:21;;;;;;;10.53;7.00;;;;;;;16.96;67.22;101320.44;2496807;23;20511;-69
2022/05/25 01:52:01;;;;;;;8.60;7.00;;;;;;;16.94;67.03;101320.09;2497127;23;20393;-69
2022/05/25 01:53:07;;;;;;;12.33;6.10;;;;;;;16.93;67.24;101327.75;2496715;23;20731;-69
2022/05/25 01:54:12;;;;;;;9.00;6.13;;;;;;;16.94;67.04;101334.88;2497500;23;20719;-69
2022/05/25 01:55:21;;;;;;;9.17;5.97;;;;;;;16.71;66.95;101296.19;2496975;23;20845;-69
2022/05/25 01:56:24;;;;;;;8.67;6.57;;;;;;;16.83;67.21;101334.53;2496492;23;20398;-69
2022/05/25 01:57:29;;;;;;;17.37;7.70;;;;;;;16.73;67.51;101344.09;2495554;23;20468;-69
2022/05/25 01:58:36;;;;;;;23.50;9.13;;;;;;;16.80;67.88;101338.22;2497516;23;20383;-69
2022/05/25 01:59:37;;;;;;;23.40;8.50;;;;;;;16.83;67.37;101333.72;2496825;23;20367;-69
2022/05/25 02:00:44;;;;;;;16.83;8.90;;;;;;;16.84;67.83;101335.28;2497164;23;20406;-69
2022/05/25 02:04:38;;;;;;;13.80;7.97;;;;;;;16.75;67.96;101330.41;2497362;23;20360;-69
2022/05/25 02:05:52;;;;;;;9.97;6.90;;;;;;;16.76;67.81;101334.00;2496885;23;20757;-69
2022/05/25 02:07:01;;;;;;;14.20;7.03;;;;;;;16.75;67.77;101327.63;2496482;23;20429;-69
2022/05/25 02:08:31;;;;;;;8.17;6.60;;;;;;;16.73;68.24;101338.50;2496887;23;20890;-69
2022/05/25 02:09:46;;;;;;;8.37;6.63;;;;;;;16.71;68.16;101326.22;2496998;23;20366;-69
2022/05/25 02:11:07;;;;;;;7.93;6.40;;;;;;;16.69;67.95;101328.66;2497278;23;20375;-69
2022/05/25 02:12:25;;;;;;;9.27;6.60;;;;;;;16.65;68.09;101328.81;2496901;23;20403;-69
2022/05/25 02:13:53;;;;;;;10.50;7.07;;;;;;;16.57;68.63;101332.31;2496195;23;20386;-69
2022/05/25 02:15:05;;;;;;;13.03;6.93;;;;;;;16.64;68.35;101337.69;2496882;23;20380;-69
2022/05/25 02:16:08;;;;;;;19.90;7.90;;;;;;;16.65;68.74;101333.63;2497292;23;20455;-69
2022/05/25 02:17:32;;;;;;;13.03;6.97;;;;;;;16.68;68.40;101332.72;2494085;23;20400;-69
2022/05/25 02:18:51;;;;;;;11.47;6.23;;;;;;;16.73;68.40;101331.34;2496887;23;20390;-69
2022/05/25 02:20:01;;;;;;;8.37;6.03;;;;;;;16.77;68.17;101327.16;2496424;23;20477;-69
2022/05/25 02:21:18;;;;;;;9.27;5.70;;;;;;;16.77;68.08;101321.56;2496395;23;20397;-69
2022/05/25 02:22:31;;;;;;;7.67;5.53;;;;;;;16.48;67.99;101270.72;2496886;23;20374;-69
2022/05/25 02:23:43;;;;;;;8.03;5.60;;;;;;;16.84;67.52;101329.69;2496820;23;20374;-69
2022/05/25 02:24:52;;;;;;;6.37;5.70;;;;;;;16.23;67.76;101234.47;2497012;23;20473;-69
2022/05/25 02:26:32;;;;;;;7.13;5.73;;;;;;;16.81;67.96;101330.63;2497050;23;20480;-69
2022/05/25 02:27:41;;;;;;;6.77;5.47;;;;;;;16.80;67.59;101326.28;2495142;23;20419;-69
2022/05/25 02:29:03;;;;;;;7.33;5.57;;;;;;;16.75;67.91;101335.25;2496685;23;20379;-69
2022/05/25 02:30:08;;;;;;;8.67;5.83;;;;;;;16.75;67.96;101329.66;2496432;23;20770;-69
2022/05/25 02:31:15;;;;;;;9.33;5.67;;;;;;;16.76;67.88;101329.19;2496834;23;20374;-69
2022/05/25 02:32:22;;;;;;;9.90;6.20;;;;;;;16.81;67.33;101339.78;2497236;23;20372;-69
2022/05/25 02:33:27;;;;;;;12.03;5.80;;;;;;;16.76;67.06;101340.38;2496951;23;20828;-69
2022/05/25 02:34:28;;;;;;;10.53;6.03;;;;;;;16.64;67.51;101335.66;2497289;23;20360;-69
2022/05/25 02:35:30;;;;;;;8.07;5.13;;;;;;;16.79;67.20;101345.06;2497068;23;20380;-69
2022/05/25 02:36:38;;;;;;;9.10;5.80;;;;;;;16.75;67.21;101336.03;2496279;23;20437;-69
2022/05/25 02:37:38;;;;;;;7.70;5.50;;;;;;;16.64;66.69;101334.88;2496343;23;20375;-69
2022/05/25 02:38:41;;;;;;;9.13;5.03;;;;;;;16.72;67.08;101338.97;2496861;23;20418;-69
2022/05/25 02:39:43;;;;;;;8.07;5.40;;;;;;;16.79;66.76;101344.28;2496384;23;20162;-69
2022/05/25 02:40:44;;;;;;;6.93;5.43;;;;;;;16.42;66.96;101294.16;2497241;23;20390;-69
2022/05/25 02:41:54;;;;;;;8.83;5.63;;;;;;;16.80;66.87;101348.66;2496950;23;20662;-69
2022/05/25 02:42:54;;;;;;;8.17;5.50;;;;;;;16.73;67.08;101338.50;2496992;23;20234;-69
2022/05/25 02:43:55;;;;;;;10.17;6.50;;;;;;;16.80;66.75;101341.03;2496976;23;20369;-69
2022/05/25 02:44:56;;;;;;;8.63;5.20;;;;;;;16.79;67.06;101345.06;2496990;23;20194;-69
2022/05/25 02:45:57;;;;;;;5.63;4.90;;;;;;;16.26;66.83;101269.91;2496982;23;20158;-69
2022/05/25 02:46:58;;;;;;;7.37;5.07;;;;;;;16.34;67.01;101285.22;2495474;23;20162;-69
2022/05/25 02:47:58;;;;;;;7.50;5.13;;;;;;;16.71;67.02;101343.00;2495863;23;20392;-69
2022/05/25 02:48:59;;;;;;;7.23;5.27;;;;;;;16.73;67.18;101350.94;2497313;23;20167;-69
2022/05/25 02:49:59;;;;;;;6.83;5.90;;;;;;;16.77;66.94;101347.56;2496357;23;20188;-69
2022/05/25 02:51:00;;;;;;;7.90;5.60;;;;;;;16.79;67.38;101353.47;2497053;23;20173;-69
2022/05/25 02:52:00;;;;;;;8.80;5.50;;;;;;;16.80;67.28;101357.06;2496787;23;20235;-69
2022/05/25 02:53:01;;;;;;;9.17;5.73;;;;;;;16.79;67.29;101358.28;2496932;23;20170;-69
2022/05/25 02:54:02;;;;;;;6.47;5.70;;;;;;;16.69;67.42;101359.44;2496893;23;20304;-69
2022/05/25 02:55:04;;;;;;;6.53;5.60;;;;;;;16.51;67.48;101350.94;2496894;23;20152;-69
2022/05/25 02:56:05;;;;;;;6.63;5.47;;;;;;;16.58;67.57;101373.06;2497322;23;20495;-69
2022/05/25 02:57:07;;;;;;;10.67;6.07;;;;;;;16.53;67.49;101371.63;2495884;23;20441;-69
2022/05/25 02:58:08;;;;;;;7.73;5.60;;;;;;;16.63;67.61;101368.91;2496973;23;20868;-69
2022/05/25 02:59:08;;;;;;;13.50;5.83;;;;;;;16.62;67.09;101370.16;2495783;23;20788;-69
2022/05/25 03:00:09;;;;;;;6.70;5.70;;;;;;;16.01;67.42;101292.41;2495990;23;20191;-69
2022/05/25 03:01:10;;;;;;;9.03;6.10;;;;;;;16.48;67.73;101377.81;2496726;23;20160;-69
2022/05/25 03:02:11;;;;;;;7.13;5.60;;;;;;;16.42;67.44;101376.84;2496922;23;20468;-69
2022/05/25 03:03:12;;;;;;;6.83;5.60;;;;;;;16.36;67.85;101375.03;2496790;23;20139;-69
2022/05/25 03:04:13;;;;;;;9.87;6.40;;;;;;;16.26;67.99;101376.19;2497224;23;20234;-69
2022/05/25 03:05:13;;;;;;;8.17;6.20;;;;;;;16.24;68.25;101373.84;2496781;23;20385;-69
2022/05/25 03:06:14;;;;;;;7.03;5.43;;;;;;;15.62;68.46;101290.97;2496239;23;20167;-69
2022/05/25 03:07:14;;;;;;;9.07;5.57;;;;;;;16.25;68.40;101381.00;2495023;23;20156;-69
2022/05/25 03:08:15;;;;;;;8.23;5.50;;;;;;;16.30;68.28;101377.63;2496860;23;20156;-69
2022/05/25 03:09:15;;;;;;;6.50;5.70;;;;;;;16.33;68.11;101367.53;2496702;23;20190;-69
2022/05/25 03:10:16;;;;;;;7.97;5.70;;;;;;;16.33;68.03;101379.53;2496621;23;20184;-69
2022/05/25 03:11:16;;;;;;;6.27;5.67;;;;;;;16.19;68.19;101366.03;2496783;23;20159;-69
2022/05/25 03:12:17;;;;;;;9.63;6.10;;;;;;;16.24;68.33;101381.47;2497269;23;20156;-69
2022/05/25 03:13:18;;;;;;;7.97;6.57;;;;;;;16.28;68.61;101396.09;2496595;23;20613;-69
2022/05/25 03:14:18;;;;;;;6.80;6.00;;;;;;;16.27;68.40;101380.56;2497122;23;20464;-69
2022/05/25 03:15:21;;;;;;;8.50;5.80;;;;;;;16.26;68.53;101379.00;2496666;23;20162;-69
2022/05/25 03:16:22;;;;;;;6.43;5.73;;;;;;;16.16;68.37;101372.56;2497129;23;20238;-69
2022/05/25 03:17:23;;;;;;;7.63;5.70;;;;;;;15.73;68.76;101304.59;2495328;23;20903;-69
2022/05/25 03:18:24;;;;;;;6.10;5.50;;;;;;;16.25;68.72;101386.59;2496950;23;20734;-69
2022/05/25 03:19:25;;;;;;;7.97;5.83;;;;;;;16.31;68.84;101389.59;2496806;23;20212;-69
2022/05/25 03:20:27;;;;;;;8.90;6.10;;;;;;;16.33;68.37;101389.91;2507433;23;20246;-69
2022/05/25 03:21:27;;;;;;;6.80;6.10;;;;;;;16.32;68.43;101379.97;2507700;23;20234;-69
2022/05/25 03:22:28;;;;;;;7.87;6.10;;;;;;;16.33;68.89;101387.13;2496910;23;20385;-69
2022/05/25 03:23:28;;;;;;;6.13;5.50;;;;;;;16.30;68.64;101391.59;2495854;23;20185;-69
2022/05/25 03:24:29;;;;;;;8.93;6.03;;;;;;;16.31;68.50;101393.19;2496143;23;20231;-69
2022/05/25 03:25:30;;;;;;;6.50;5.80;;;;;;;15.85;68.58;101312.94;2496843;23;20150;-69
2022/05/25 03:26:31;;;;;;;7.43;5.70;;;;;;;16.41;68.28;101391.28;2496279;23;20155;-69
2022/05/25 03:27:32;;;;;;;9.60;5.60;;;;;;;16.42;68.34;101390.81;2495521;23;20224;-69
2022/05/25 03:28:32;;;;;;;8.67;5.17;;;;;;;16.49;68.15;101395.41;2496226;23;20458;-69
2022/05/25 03:29:33;;;;;;;8.30;5.80;;;;;;;16.52;68.27;101398.06;2496717;23;20155;-69
2022/05/25 03:30:34;;;;;;;9.83;6.13;;;;;;;16.57;68.13;101398.72;2496487;23;20191;-69
2022/05/25 03:31:36;;;;;;;8.60;6.00;;;;;;;16.57;68.20;101388.28;2496875;23;20151;-69
2022/05/25 03:32:36;;;;;;;9.40;6.20;;;;;;;16.52;68.03;101395.25;2496959;23;20378;-69
2022/05/25 03:33:37;;;;;;;8.70;6.23;;;;;;;16.49;67.87;101396.16;2496793;23;20379;-69
2022/05/25 03:34:37;;;;;;;14.73;6.40;;;;;;;16.48;68.46;101402.19;2496927;23;20155;-69
2022/05/25 03:35:38;;;;;;;11.20;6.10;;;;;;;16.52;68.45;101403.66;2496740;23;20160;-69
2022/05/25 03:36:39;;;;;;;9.73;6.30;;;;;;;16.18;68.15;101333.72;2496206;23;20164;-69
2022/05/25 03:37:39;;;;;;;6.60;6.00;;;;;;;16.53;67.64;101382.81;2496441;23;20254;-69
2022/05/25 03:38:40;;;;;;;11.77;5.67;;;;;;;16.69;67.72;101402.22;2496749;23;20156;-69
2022/05/25 03:39:40;;;;;;;8.43;5.80;;;;;;;16.71;67.62;101408.13;2496309;23;20150;-69
2022/05/25 03:40:41;;;;;;;10.93;6.30;;;;;;;15.99;67.47;101284.47;2497020;23;20151;-69
2022/05/25 03:41:41;;;;;;;13.97;6.90;;;;;;;16.57;67.41;101371.50;2496496;23;20646;-69
2022/05/25 03:42:44;;;;;;;13.50;6.90;;;;;;;16.74;67.60;101398.03;2496885;23;20265;-69
2022/05/25 03:43:46;;;;;;;14.50;7.07;;;;;;;16.76;67.36;101407.56;2496772;23;20153;-69
2022/05/25 03:44:46;;;;;;;13.83;7.07;;;;;;;16.43;67.73;101358.03;2496957;23;20477;-69
2022/05/25 03:45:47;;;;;;;9.53;6.40;;;;;;;16.76;67.45;101404.00;2496687;23;20988;-69
2022/05/25 03:46:50;;;;;;;9.00;6.20;;;;;;;16.81;67.65;101406.97;2496151;23;20161;-69
2022/05/25 03:47:51;;;;;;;9.93;6.50;;;;;;;16.51;67.10;101359.34;2496480;23;20408;-69
2022/05/25 03:48:51;;;;;;;10.70;6.63;;;;;;;16.69;67.29;101385.44;2496799;23;20386;-69
2022/05/25 03:49:52;;;;;;;9.20;6.10;;;;;;;16.80;67.67;101408.22;2496139;23;20156;-69
2022/05/25 03:50:52;;;;;;;8.57;6.20;;;;;;;16.26;67.34;101328.66;2496834;23;20158;-69
2022/05/25 03:51:53;;;;;;;7.93;6.30;;;;;;;16.80;67.46;101415.84;2496786;23;20595;-69
2022/05/25 03:52:53;;;;;;;7.90;6.13;;;;;;;16.57;67.38;101373.53;2496891;23;20495;-69
2022/05/25 03:53:54;;;;;;;7.73;6.67;;;;;;;16.84;67.55;101406.06;2496705;23;20177;-69
2022/05/25 03:54:54;;;;;;;8.77;6.07;;;;;;;16.28;67.46;101318.56;2496863;23;20155;-69
2022/05/25 03:55:55;;;;;;;7.70;6.00;;;;;;;16.90;67.69;101406.28;2496599;23;20162;-69
2022/05/25 03:56:56;;;;;;;10.20;6.13;;;;;;;16.77;67.42;101397.16;2496086;23;20227;-69
2022/05/25 03:57:56;;;;;;;10.97;6.03;;;;;;;17.00;67.36;101405.09;2496314;23;20202;-69
2022/05/25 03:58:56;;;;;;;9.73;6.03;;;;;;;16.79;67.25;101359.06;2497115;23;20155;-69
2022/05/25 03:59:57;;;;;;;7.40;5.63;;;;;;;17.12;67.00;101395.81;2496255;23;20159;-69
2022/05/25 04:00:57;;;;;;;9.23;6.00;;;;;;;17.16;66.60;101405.63;2496978;23;20160;-69
2022/05/25 04:01:58;;;;;;;11.87;8.57;;;;;;;17.17;66.93;101389.63;2495375;23;20592;-69
2022/05/25 04:03:02;;;;;;;12.47;9.97;;;;;;;17.25;66.57;101397.28;2496437;23;20211;-69
2022/05/25 04:04:03;;;;;;;15.37;11.80;;;;;;;17.29;66.36;101402.75;2496795;23;20166;-69
2022/05/25 04:05:07;;;;;;;9.37;7.20;;;;;;;17.29;66.26;101406.34;2496682;23;20786;-69
2022/05/25 04:06:07;;;;;;;7.53;6.47;;;;;;;17.25;66.54;101410.50;2497016;23;20792;-69
2022/05/25 04:07:09;;;;;;;9.00;6.10;;;;;;;16.85;66.25;101348.84;2495341;23;20424;-69
2022/05/25 04:08:10;;;;;;;7.27;6.10;;;;;;;17.20;66.38;101417.50;2496845;23;20424;-69
2022/05/25 04:09:11;;;;;;;8.97;6.33;;;;;;;17.24;66.30;101412.53;2496438;23;20160;-69
2022/05/25 04:10:19;;;;;;;9.87;5.70;;;;;;;17.28;66.11;101418.78;2496318;23;20502;-69
2022/05/25 04:11:20;;;;;;;7.10;5.10;;;;;;;17.35;66.22;101417.72;2495806;23;20234;-69
2022/05/25 04:12:22;;;;;;;8.87;5.47;;;;;;;17.41;66.46;101420.75;2496181;23;20392;-69
2022/05/25 04:13:23;;;;;;;8.70;5.83;;;;;;;17.02;66.06;101353.00;2496679;23;20156;-69
2022/05/25 04:14:23;;;;;;;7.70;5.70;;;;;;;17.01;65.81;101345.03;2496953;23;20412;-69
2022/05/25 04:15:26;;;;;;;8.23;5.33;;;;;;;17.61;65.99;101429.53;2496617;23;20242;-69
2022/05/25 04:16:27;;;;;;;9.80;5.63;;;;;;;17.68;65.66;101422.41;2496566;23;20595;-69
2022/05/25 04:17:27;;;;;;;7.57;5.60;;;;;;;17.73;65.44;101427.41;2496094;23;20794;-69
2022/05/25 04:18:28;;;;;;;11.73;6.23;;;;;;;17.45;65.31;101382.91;2496868;23;20179;-69
2022/05/25 04:19:30;;;;;;;9.97;6.23;;;;;;;17.79;65.37;101424.78;2496640;23;20552;-69
2022/05/25 04:20:32;;;;;;;20.33;6.57;;;;;;;17.80;65.10;101426.34;2496456;23;20473;-69
2022/05/25 04:21:32;;;;;;;14.53;6.70;;;;;;;17.82;65.13;101423.88;2496684;23;20377;-69
2022/05/25 04:22:33;;;;;;;11.00;6.80;;;;;;;17.88;64.92;101419.97;2496006;23;20427;-69
2022/05/25 04:23:34;;;;;;;11.43;6.07;;;;;;;17.93;64.98;101422.16;2495796;23;20156;-69
2022/05/25 04:24:34;;;;;;;8.63;6.03;;;;;;;17.97;64.80;101410.78;2496564;23;20180;-69
2022/05/25 04:25:35;;;;;;;8.53;5.57;;;;;;;18.03;64.91;101423.75;2496723;23;20183;-69
2022/05/25 04:26:35;;;;;;;9.57;5.90;;;;;;;18.00;64.66;101418.28;2496142;23;20153;-69
2022/05/25 04:27:38;;;;;;;8.03;5.60;;;;;;;18.08;64.55;101425.94;2496391;23;20189;-69
2022/05/25 04:28:38;;;;;;;8.17;5.43;;;;;;;18.14;64.46;101424.06;2497089;23;20153;-69
2022/05/25 04:29:39;;;;;;;6.90;5.73;;;;;;;17.28;64.33;101286.34;2497034;23;20411;-69
2022/05/25 04:30:39;;;;;;;6.30;5.60;;;;;;;18.22;64.24;101421.75;2497559;23;20717;-69
2022/05/25 04:31:40;;;;;;;7.80;5.30;;;;;;;18.24;64.08;101417.25;2497327;23;20181;-69
2022/05/25 04:32:40;;;;;;;7.00;5.43;;;;;;;17.70;64.13;101328.66;2497661;23;20678;-69
2022/05/25 04:33:41;;;;;;;9.27;5.90;;;;;;;18.32;64.13;101426.16;2497425;23;20769;-69
2022/05/25 04:34:41;;;;;;;13.77;6.23;;;;;;;18.41;63.83;101426.19;2492478;23;20157;-69
2022/05/25 04:35:43;;;;;;;8.83;6.13;;;;;;;18.47;63.92;101426.34;2495887;23;20597;-69
2022/05/25 04:36:44;;;;;;;11.03;6.40;;;;;;;18.50;63.80;101428.19;2496569;23;20157;-69
2022/05/25 04:37:54;;;;;;;9.67;6.43;;;;;;;18.55;63.53;101425.56;2496667;23;20907;-69
2022/05/25 04:38:55;;;;;;;10.97;6.50;;;;;;;18.56;63.53;101429.13;2495530;23;20377;-69
2022/05/25 04:39:55;;;;;;;9.87;6.47;;;;;;;18.60;63.39;101426.97;2495409;23;20445;-69
2022/05/25 04:40:56;;;;;;;9.70;6.00;;;;;;;18.22;63.30;101354.41;2496689;23;20212;-69
2022/05/25 04:41:56;;;;;;;9.53;6.03;;;;;;;18.66;63.25;101403.41;2497364;23;20204;-69
2022/05/25 04:42:59;;;;;;;7.63;5.73;;;;;;;18.66;63.46;101413.84;2497065;23;20159;-69
2022/05/25 04:43:59;;;;;;;7.33;5.70;;;;;;;18.67;63.26;101418.25;2497440;23;20167;-69
2022/05/25 04:45:00;;;;;;;10.60;6.17;;;;;;;18.72;63.35;101418.38;2497326;23;20391;-69
2022/05/25 04:46:07;;;;;;;11.40;5.50;;;;;;;18.76;63.35;101413.38;2496035;23;20263;-69
2022/05/25 04:47:08;;;;;;;9.90;6.63;;;;;;;18.78;63.13;101415.72;2496017;23;20837;-69
2022/05/25 04:48:10;;;;;;;7.40;6.20;;;;;;;18.16;62.98;101313.44;2496845;23;20388;-69
2022/05/25 04:49:10;;;;;;;9.53;6.23;;;;;;;18.84;63.04;101422.28;2496928;23;20157;-69
2022/05/25 04:50:13;;;;;;;8.80;6.37;;;;;;;18.80;63.01;101414.00;2497288;23;20467;-69
2022/05/25 04:51:14;;;;;;;10.17;5.87;;;;;;;18.88;63.10;101429.28;2496264;23;20214;-69
2022/05/25 04:52:15;;;;;;;9.37;6.37;;;;;;;18.43;63.06;101356.31;2496833;23;20515;-69
2022/05/25 04:53:18;;;;;;;9.97;6.50;;;;;;;18.95;63.31;101428.19;2496800;23;20388;-69
2022/05/25 04:54:18;;;;;;;8.53;6.00;;;;;;;18.71;63.30;101399.97;2497466;23;20180;-69
2022/05/25 04:57:58;;;;;;;7.53;6.57;;;;;;;18.88;63.42;101431.31;2496594;23;20755;-70
2022/05/25 04:58:58;;;;;;;13.00;6.83;;;;;;;18.91;63.39;101422.72;2486721;23;20463;-70
2022/05/25 05:00:04;;;;;;;10.27;6.83;;;;;;;18.77;63.99;101431.78;2495180;23;20385;-68
2022/05/25 05:01:07;;;;;;;10.20;6.83;;;;;;;18.72;64.21;101409.19;2495263;23;20744;-69
2022/05/25 05:02:08;;;;;;;9.13;7.20;;;;;;;18.87;64.35;101430.53;2494764;23;20444;-70
2022/05/25 05:03:08;;;;;;;8.07;6.67;;;;;;;18.90;64.40;101420.38;2495848;23;20810;-69
2022/05/25 05:04:09;;;;;;;12.17;7.20;;;;;;;18.23;64.32;101325.13;2496971;23;20634;-69
2022/05/25 05:05:12;;;;;;;12.63;6.93;;;;;;;18.97;64.20;101431.28;2496554;23;20237;-69
2022/05/25 05:06:13;;;;;;;8.50;6.67;;;;;;;18.94;64.22;101441.44;2496442;23;20191;-70